sensor_id;sensor_type;location;lat;lon;timestamp;pressure;altitude;pressure_sealevel;temperature;humidity
70833;BME280;71099;59.528;17.886;2023-12-29T00:01:24;99120.75;;;0.87;99.36
70833;BME280;71099;59.528;17.886;2023-12-29T00:03:49;99116.00;;;0.94;99.17
70833;BME280;71099;59.528;17.886;2023-12-29T00:06:15;99102.00;;;0.99;99.01
70833;BME280;71099;59.528;17.886;2023-12-29T00:08:40;99110.72;;;1.07;98.55
70833;BME280;71099;59.528;17.886;2023-12-29T00:11:05;99102.19;;;1.08;98.31
70833;BME280;71099;59.528;17.886;2023-12-29T00:13:31;99106.00;;;1.13;98.41
70833;BME280;71099;59.528;17.886;2023-12-29T00:15:56;99100.53;;;1.18;98.50
70833;BME280;71099;59.528;17.886;2023-12-29T00:18:22;99102.59;;;1.24;98.11
70833;BME280;71099;59.528;17.886;2023-12-29T00:20:49;99102.34;;;1.27;97.65
70833;BME280;71099;59.528;17.886;2023-12-29T00:23:14;99101.28;;;1.29;97.40
70833;BME280;71099;59.528;17.886;2023-12-29T00:25:40;99098.38;;;1.34;97.13
70833;BME280;71099;59.528;17.886;2023-12-29T00:28:05;99100.41;;;1.40;97.38
70833;BME280;71099;59.528;17.886;2023-12-29T00:30:31;99094.16;;;1.44;96.75
70833;BME280;71099;59.528;17.886;2023-12-29T00:32:57;99083.53;;;1.50;96.46
70833;BME280;71099;59.528;17.886;2023-12-29T00:35:22;99078.44;;;1.50;96.38
70833;BME280;71099;59.528;17.886;2023-12-29T00:37:50;99066.13;;;1.55;95.77
70833;BME280;71099;59.528;17.886;2023-12-29T00:40:16;99057.31;;;1.59;95.78
70833;BME280;71099;59.528;17.886;2023-12-29T00:42:41;99057.06;;;1.62;95.25
70833;BME280;71099;59.528;17.886;2023-12-29T00:45:07;99056.03;;;1.65;94.87
70833;BME280;71099;59.528;17.886;2023-12-29T00:47:33;99047.59;;;1.64;94.71
70833;BME280;71099;59.528;17.886;2023-12-29T00:49:59;99038.34;;;1.63;94.75
70833;BME280;71099;59.528;17.886;2023-12-29T00:52:25;99026.81;;;1.59;94.69
70833;BME280;71099;59.528;17.886;2023-12-29T00:54:50;99032.41;;;1.53;94.32
70833;BME280;71099;59.528;17.886;2023-12-29T00:57:16;99057.59;;;1.56;94.14
70833;BME280;71099;59.528;17.886;2023-12-29T00:59:41;99049.03;;;1.57;94.51
70833;BME280;71099;59.528;17.886;2023-12-29T01:02:07;99057.84;;;1.53;93.88
70833;BME280;71099;59.528;17.886;2023-12-29T01:04:33;99050.31;;;1.52;94.14
70833;BME280;71099;59.528;17.886;2023-12-29T01:06:58;99040.41;;;1.48;93.55
70833;BME280;71099;59.528;17.886;2023-12-29T01:09:26;99033.59;;;1.49;93.61
70833;BME280;71099;59.528;17.886;2023-12-29T01:11:51;99037.50;;;1.53;93.76
70833;BME280;71099;59.528;17.886;2023-12-29T01:14:17;99022.81;;;1.57;93.76
70833;BME280;71099;59.528;17.886;2023-12-29T01:16:42;99027.06;;;1.56;93.61
70833;BME280;71099;59.528;17.886;2023-12-29T01:19:07;99013.44;;;1.57;93.90
70833;BME280;71099;59.528;17.886;2023-12-29T01:21:33;99008.34;;;1.57;93.24
70833;BME280;71099;59.528;17.886;2023-12-29T01:24:00;99016.91;;;1.56;93.17
70833;BME280;71099;59.528;17.886;2023-12-29T01:26:26;99009.28;;;1.56;93.59
70833;BME280;71099;59.528;17.886;2023-12-29T01:28:52;98999.78;;;1.58;93.22
70833;BME280;71099;59.528;17.886;2023-12-29T01:31:17;98991.22;;;1.59;92.95
70833;BME280;71099;59.528;17.886;2023-12-29T01:33:43;98976.66;;;1.61;93.27
70833;BME280;71099;59.528;17.886;2023-12-29T01:36:08;98970.88;;;1.59;93.10
70833;BME280;71099;59.528;17.886;2023-12-29T01:38:33;98971.16;;;1.56;93.11
70833;BME280;71099;59.528;17.886;2023-12-29T01:40:59;98960.72;;;1.59;93.11
70833;BME280;71099;59.528;17.886;2023-12-29T01:43:24;98959.66;;;1.62;93.18
70833;BME280;71099;59.528;17.886;2023-12-29T01:45:50;98961.00;;;1.66;92.80
70833;BME280;71099;59.528;17.886;2023-12-29T01:48:15;98959.66;;;1.62;92.79
70833;BME280;71099;59.528;17.886;2023-12-29T01:50:41;98968.63;;;1.66;92.49
70833;BME280;71099;59.528;17.886;2023-12-29T01:53:07;98967.72;;;1.67;92.66
70833;BME280;71099;59.528;17.886;2023-12-29T01:55:32;98974.66;;;1.65;92.57
70833;BME280;71099;59.528;17.886;2023-12-29T01:57:58;98984.16;;;1.63;92.21
70833;BME280;71099;59.528;17.886;2023-12-29T02:00:25;98977.25;;;1.44;92.58
70833;BME280;71099;59.528;17.886;2023-12-29T02:02:51;98975.13;;;1.49;92.54
70833;BME280;71099;59.528;17.886;2023-12-29T02:05:17;98972.06;;;1.55;92.14
70833;BME280;71099;59.528;17.886;2023-12-29T02:07:43;98977.69;;;1.49;92.04
70833;BME280;71099;59.528;17.886;2023-12-29T02:10:09;98962.88;;;1.54;92.29
70833;BME280;71099;59.528;17.886;2023-12-29T02:12:39;98960.97;;;1.56;92.02
70833;BME280;71099;59.528;17.886;2023-12-29T02:15:05;98942.25;;;1.57;91.91
70833;BME280;71099;59.528;17.886;2023-12-29T02:17:43;98931.94;;;1.59;91.88
70833;BME280;71099;59.528;17.886;2023-12-29T02:20:11;98935.28;;;1.59;91.90
70833;BME280;71099;59.528;17.886;2023-12-29T02:22:36;98929.03;;;1.63;91.80
70833;BME280;71099;59.528;17.886;2023-12-29T02:25:02;98924.59;;;1.65;91.76
70833;BME280;71099;59.528;17.886;2023-12-29T02:33:03;98906.31;;;1.71;91.50
70833;BME280;71099;59.528;17.886;2023-12-29T02:35:43;98903.34;;;1.66;91.36
70833;BME280;71099;59.528;17.886;2023-12-29T02:38:09;98907.38;;;1.69;91.16
70833;BME280;71099;59.528;17.886;2023-12-29T02:40:36;98897.59;;;1.64;91.35
70833;BME280;71099;59.528;17.886;2023-12-29T02:43:02;98901.19;;;1.62;90.95
70833;BME280;71099;59.528;17.886;2023-12-29T02:45:27;98901.97;;;1.62;90.96
70833;BME280;71099;59.528;17.886;2023-12-29T02:47:53;98904.53;;;1.62;91.09
70833;BME280;71099;59.528;17.886;2023-12-29T02:50:18;98901.97;;;1.62;91.32
70833;BME280;71099;59.528;17.886;2023-12-29T02:52:44;98900.25;;;1.63;91.46
70833;BME280;71099;59.528;17.886;2023-12-29T02:55:09;98882.34;;;1.64;91.31
70833;BME280;71099;59.528;17.886;2023-12-29T02:57:35;98887.41;;;1.64;91.36
70833;BME280;71099;59.528;17.886;2023-12-29T03:00:00;98883.91;;;1.65;91.02
70833;BME280;71099;59.528;17.886;2023-12-29T03:02:26;98870.53;;;1.63;91.31
70833;BME280;71099;59.528;17.886;2023-12-29T03:04:51;98862.50;;;1.58;91.33
70833;BME280;71099;59.528;17.886;2023-12-29T03:07:17;98868.53;;;1.57;91.39
70833;BME280;71099;59.528;17.886;2023-12-29T03:09:42;98866.25;;;1.54;91.62
70833;BME280;71099;59.528;17.886;2023-12-29T03:12:08;98856.88;;;1.55;91.58
70833;BME280;71099;59.528;17.886;2023-12-29T03:14:33;98859.28;;;1.56;91.25
70833;BME280;71099;59.528;17.886;2023-12-29T03:16:59;98859.03;;;1.59;91.89
70833;BME280;71099;59.528;17.886;2023-12-29T03:19:24;98844.69;;;1.58;91.69
70833;BME280;71099;59.528;17.886;2023-12-29T03:21:50;98840.31;;;1.60;91.87
70833;BME280;71099;59.528;17.886;2023-12-29T03:24:16;98834.94;;;1.54;91.89
70833;BME280;71099;59.528;17.886;2023-12-29T03:26:42;98825.59;;;1.54;92.08
70833;BME280;71099;59.528;17.886;2023-12-29T03:29:07;98813.53;;;1.56;92.32
70833;BME280;71099;59.528;17.886;2023-12-29T03:31:33;98810.59;;;1.61;92.22
70833;BME280;71099;59.528;17.886;2023-12-29T03:33:58;98811.53;;;1.60;92.17
70833;BME280;71099;59.528;17.886;2023-12-29T03:36:24;98804.72;;;1.60;92.01
70833;BME280;71099;59.528;17.886;2023-12-29T03:38:49;98799.34;;;1.63;92.04
70833;BME280;71099;59.528;17.886;2023-12-29T03:41:14;98794.00;;;1.66;91.94
70833;BME280;71099;59.528;17.886;2023-12-29T03:43:40;98781.97;;;1.68;92.14
70833;BME280;71099;59.528;17.886;2023-12-29T03:46:18;98775.94;;;1.69;92.17
70833;BME280;71099;59.528;17.886;2023-12-29T03:48:44;98773.81;;;1.74;92.07
70833;BME280;71099;59.528;17.886;2023-12-29T03:51:09;98770.34;;;1.75;91.36
70833;BME280;71099;59.528;17.886;2023-12-29T03:53:35;98761.75;;;1.76;92.19
70833;BME280;71099;59.528;17.886;2023-12-29T03:56:13;98761.09;;;1.74;91.61
70833;BME280;71099;59.528;17.886;2023-12-29T03:58:38;98759.22;;;1.76;92.00
70833;BME280;71099;59.528;17.886;2023-12-29T04:01:04;98752.25;;;1.78;91.75
70833;BME280;71099;59.528;17.886;2023-12-29T04:03:34;98750.38;;;1.80;91.54
70833;BME280;71099;59.528;17.886;2023-12-29T04:05:59;98743.44;;;1.82;91.65
70833;BME280;71099;59.528;17.886;2023-12-29T04:08:24;98745.81;;;1.84;91.62
70833;BME280;71099;59.528;17.886;2023-12-29T04:10:50;98732.97;;;1.85;91.69
70833;BME280;71099;59.528;17.886;2023-12-29T04:13:15;98733.78;;;1.86;90.94
70833;BME280;71099;59.528;17.886;2023-12-29T04:15:41;98723.63;;;1.86;91.37
70833;BME280;71099;59.528;17.886;2023-12-29T04:18:06;98729.22;;;1.89;91.17
70833;BME280;71099;59.528;17.886;2023-12-29T04:20:31;98716.50;;;1.89;90.94
70833;BME280;71099;59.528;17.886;2023-12-29T04:22:57;98718.13;;;1.90;90.77
70833;BME280;71099;59.528;17.886;2023-12-29T04:25:22;98708.88;;;1.89;90.88
70833;BME280;71099;59.528;17.886;2023-12-29T04:27:48;98711.28;;;1.91;90.85
70833;BME280;71099;59.528;17.886;2023-12-29T04:30:13;98696.81;;;1.91;90.73
70833;BME280;71099;59.528;17.886;2023-12-29T04:32:38;98694.16;;;1.93;90.91
70833;BME280;71099;59.528;17.886;2023-12-29T04:35:04;98698.31;;;1.94;90.75
70833;BME280;71099;59.528;17.886;2023-12-29T04:37:30;98688.91;;;1.94;90.80
70833;BME280;71099;59.528;17.886;2023-12-29T04:39:55;98677.81;;;1.95;90.64
70833;BME280;71099;59.528;17.886;2023-12-29T04:42:21;98676.06;;;1.96;90.47
70833;BME280;71099;59.528;17.886;2023-12-29T04:44:46;98666.00;;;1.94;90.22
70833;BME280;71099;59.528;17.886;2023-12-29T04:47:11;98662.69;;;1.94;90.39
70833;BME280;71099;59.528;17.886;2023-12-29T04:49:37;98651.31;;;1.88;90.59
70833;BME280;71099;59.528;17.886;2023-12-29T04:52:02;98653.44;;;1.93;90.39
70833;BME280;71099;59.528;17.886;2023-12-29T04:54:28;98643.28;;;1.93;90.49
70833;BME280;71099;59.528;17.886;2023-12-29T04:56:53;98638.19;;;1.93;90.65
70833;BME280;71099;59.528;17.886;2023-12-29T04:59:19;98628.81;;;1.93;90.67
70833;BME280;71099;59.528;17.886;2023-12-29T05:01:44;98622.13;;;1.92;90.35
70833;BME280;71099;59.528;17.886;2023-12-29T05:04:10;98621.31;;;1.92;90.32
70833;BME280;71099;59.528;17.886;2023-12-29T05:06:35;98623.75;;;1.93;90.47
70833;BME280;71099;59.528;17.886;2023-12-29T05:09:00;98606.88;;;1.92;90.13
70833;BME280;71099;59.528;17.886;2023-12-29T05:11:26;98604.84;;;1.96;90.21
70833;BME280;71099;59.528;17.886;2023-12-29T05:13:51;98602.44;;;1.94;90.51
70833;BME280;71099;59.528;17.886;2023-12-29T05:16:17;98591.59;;;1.92;90.21
70833;BME280;71099;59.528;17.886;2023-12-29T05:18:42;98577.28;;;1.91;89.99
70833;BME280;71099;59.528;17.886;2023-12-29T05:21:17;98580.63;;;1.92;89.42
70833;BME280;71099;59.528;17.886;2023-12-29T05:23:46;98570.50;;;1.82;90.05
70833;BME280;71099;59.528;17.886;2023-12-29T05:26:14;98568.13;;;1.71;90.19
70833;BME280;71099;59.528;17.886;2023-12-29T05:28:39;98567.56;;;1.77;90.29
70833;BME280;71099;59.528;17.886;2023-12-29T05:31:05;98565.94;;;1.76;90.15
70833;BME280;71099;59.528;17.886;2023-12-29T05:33:31;98555.78;;;1.76;90.39
70833;BME280;71099;59.528;17.886;2023-12-29T05:35:57;98562.19;;;1.80;90.28
70833;BME280;71099;59.528;17.886;2023-12-29T05:38:22;98555.78;;;1.76;90.07
70833;BME280;71099;59.528;17.886;2023-12-29T05:40:48;98548.88;;;1.69;90.67
70833;BME280;71099;59.528;17.886;2023-12-29T05:43:15;98537.63;;;1.71;90.60
70833;BME280;71099;59.528;17.886;2023-12-29T05:45:40;98539.06;;;1.74;90.47
70833;BME280;71099;59.528;17.886;2023-12-29T05:48:06;98541.31;;;1.77;90.55
70833;BME280;71099;59.528;17.886;2023-12-29T05:50:32;98537.06;;;1.77;90.58
70833;BME280;71099;59.528;17.886;2023-12-29T05:52:57;98531.84;;;1.79;90.50
70833;BME280;71099;59.528;17.886;2023-12-29T05:55:23;98528.78;;;1.75;90.52
70833;BME280;71099;59.528;17.886;2023-12-29T05:57:48;98523.25;;;1.80;90.01
70833;BME280;71099;59.528;17.886;2023-12-29T06:00:14;98519.94;;;1.79;90.36
70833;BME280;71099;59.528;17.886;2023-12-29T06:02:41;98520.19;;;1.76;90.26
70833;BME280;71099;59.528;17.886;2023-12-29T06:05:09;98512.56;;;1.76;90.30
70833;BME280;71099;59.528;17.886;2023-12-29T06:07:35;98511.63;;;1.77;90.56
70833;BME280;71099;59.528;17.886;2023-12-29T06:10:01;98504.94;;;1.76;90.29
70833;BME280;71099;59.528;17.886;2023-12-29T06:12:26;98504.94;;;1.76;90.29
70833;BME280;71099;59.528;17.886;2023-12-29T06:14:52;98500.50;;;1.78;90.46
70833;BME280;71099;59.528;17.886;2023-12-29T06:17:17;98494.63;;;1.78;90.35
70833;BME280;71099;59.528;17.886;2023-12-29T06:19:43;98493.81;;;1.77;90.41
70833;BME280;71099;59.528;17.886;2023-12-29T06:22:08;98485.91;;;1.80;90.28
70833;BME280;71099;59.528;17.886;2023-12-29T06:24:40;98482.44;;;1.81;90.26
70833;BME280;71099;59.528;17.886;2023-12-29T06:27:11;98481.63;;;1.81;90.11
70833;BME280;71099;59.528;17.886;2023-12-29T06:29:36;98473.88;;;1.82;90.24
70833;BME280;71099;59.528;17.886;2023-12-29T06:32:02;98466.25;;;1.82;90.05
70833;BME280;71099;59.528;17.886;2023-12-29T06:34:28;98468.03;;;1.72;90.23
70833;BME280;71099;59.528;17.886;2023-12-29T06:36:53;98456.09;;;1.73;90.23
70833;BME280;71099;59.528;17.886;2023-12-29T06:39:19;98451.00;;;1.73;90.25
70833;BME280;71099;59.528;17.886;2023-12-29T06:41:44;98460.25;;;1.74;90.28
70833;BME280;71099;59.528;17.886;2023-12-29T06:44:10;98459.16;;;1.76;90.14
70833;BME280;71099;59.528;17.886;2023-12-29T06:46:39;98453.13;;;1.77;90.34
70833;BME280;71099;59.528;17.886;2023-12-29T06:49:07;98457.56;;;1.75;90.11
70833;BME280;71099;59.528;17.886;2023-12-29T06:51:33;98463.31;;;1.77;90.07
70833;BME280;71099;59.528;17.886;2023-12-29T06:53:59;98461.56;;;1.78;90.35
70833;BME280;71099;59.528;17.886;2023-12-29T06:56:25;98465.72;;;1.79;89.84
70833;BME280;71099;59.528;17.886;2023-12-29T06:58:51;98463.19;;;1.79;90.09
70833;BME280;71099;59.528;17.886;2023-12-29T07:01:16;98461.44;;;1.79;90.28
70833;BME280;71099;59.528;17.886;2023-12-29T07:03:42;98463.03;;;1.80;90.37
70833;BME280;71099;59.528;17.886;2023-12-29T07:06:07;98467.47;;;1.78;90.02
70833;BME280;71099;59.528;17.886;2023-12-29T07:08:34;98469.06;;;1.79;90.39
70833;BME280;71099;59.528;17.886;2023-12-29T07:10:59;98468.25;;;1.79;90.44
70833;BME280;71099;59.528;17.886;2023-12-29T07:13:25;98467.47;;;1.78;90.22
70833;BME280;71099;59.528;17.886;2023-12-29T07:15:50;98470.66;;;1.80;90.09
70833;BME280;71099;59.528;17.886;2023-12-29T07:18:16;98455.69;;;1.77;90.14
70833;BME280;71099;59.528;17.886;2023-12-29T07:20:42;98458.59;;;1.82;89.85
70833;BME280;71099;59.528;17.886;2023-12-29T07:23:08;98456.72;;;1.84;90.15
70833;BME280;71099;59.528;17.886;2023-12-29T07:25:33;98456.72;;;1.84;90.00
70833;BME280;71099;59.528;17.886;2023-12-29T07:27:59;98462.59;;;1.85;90.07
70833;BME280;71099;59.528;17.886;2023-12-29T07:30:24;98457.69;;;1.83;89.85
70833;BME280;71099;59.528;17.886;2023-12-29T07:32:51;98460.22;;;1.83;90.02
70833;BME280;71099;59.528;17.886;2023-12-29T07:35:17;98453.38;;;1.84;89.86
70833;BME280;71099;59.528;17.886;2023-12-29T07:37:43;98449.09;;;1.84;89.91
70833;BME280;71099;59.528;17.886;2023-12-29T07:40:13;98448.72;;;1.79;89.63
70833;BME280;71099;59.528;17.886;2023-12-29T07:42:41;98447.41;;;1.75;89.83
70833;BME280;71099;59.528;17.886;2023-12-29T07:45:08;98450.88;;;1.74;89.49
70833;BME280;71099;59.528;17.886;2023-12-29T07:47:34;98449.00;;;1.76;89.59
70833;BME280;71099;59.528;17.886;2023-12-29T07:50:00;98447.91;;;1.79;90.10
70833;BME280;71099;59.528;17.886;2023-12-29T07:52:25;98445.22;;;1.80;89.80
70833;BME280;71099;59.528;17.886;2023-12-29T07:54:50;98448.72;;;1.79;89.80
70833;BME280;71099;59.528;17.886;2023-12-29T07:57:16;98449.66;;;1.78;89.95
70833;BME280;71099;59.528;17.886;2023-12-29T07:59:41;98447.75;;;1.80;89.96
70833;BME280;71099;59.528;17.886;2023-12-29T08:02:07;98446.31;;;1.78;89.92
70833;BME280;71099;59.528;17.886;2023-12-29T08:04:32;98443.63;;;1.79;89.81
70833;BME280;71099;59.528;17.886;2023-12-29T08:06:58;98446.97;;;1.80;89.71
70833;BME280;71099;59.528;17.886;2023-12-29T08:09:24;98441.81;;;1.72;89.78
70833;BME280;71099;59.528;17.886;2023-12-29T08:11:50;98443.13;;;1.76;89.75
70833;BME280;71099;59.528;17.886;2023-12-29T08:14:15;98448.47;;;1.73;90.17
70833;BME280;71099;59.528;17.886;2023-12-29T08:16:41;98440.84;;;1.73;89.82
70833;BME280;71099;59.528;17.886;2023-12-29T08:19:07;98441.66;;;1.73;90.11
70833;BME280;71099;59.528;17.886;2023-12-29T08:21:32;98449.50;;;1.80;90.22
70833;BME280;71099;59.528;17.886;2023-12-29T08:23:58;98444.97;;;1.83;90.25
70833;BME280;71099;59.528;17.886;2023-12-29T08:26:24;98439.88;;;1.83;90.27
70833;BME280;71099;59.528;17.886;2023-12-29T08:28:49;98436.94;;;1.78;90.32
70833;BME280;71099;59.528;17.886;2023-12-29T08:31:14;98437.25;;;1.75;90.35
70833;BME280;71099;59.528;17.886;2023-12-29T08:33:40;98444.72;;;1.77;90.11
70833;BME280;71099;59.528;17.886;2023-12-29T08:36:06;98451.53;;;1.76;90.17
70833;BME280;71099;59.528;17.886;2023-12-29T08:38:32;98441.34;;;1.76;90.61
70833;BME280;71099;59.528;17.886;2023-12-29T08:40:58;98449.66;;;1.78;90.12
70833;BME280;71099;59.528;17.886;2023-12-29T08:43:23;98448.56;;;1.81;90.45
70833;BME280;71099;59.528;17.886;2023-12-29T08:45:49;98454.59;;;1.80;90.19
70833;BME280;71099;59.528;17.886;2023-12-29T08:48:14;98449.94;;;1.75;90.17
70833;BME280;71099;59.528;17.886;2023-12-29T08:50:39;98454.06;;;1.76;90.44
70833;BME280;71099;59.528;17.886;2023-12-29T08:53:05;98454.34;;;1.73;90.29
70833;BME280;71099;59.528;17.886;2023-12-29T08:55:30;98459.16;;;1.76;90.47
70833;BME280;71099;59.528;17.886;2023-12-29T08:57:57;98459.97;;;1.77;90.09
70833;BME280;71099;59.528;17.886;2023-12-29T09:00:22;98463.97;;;1.79;90.55
70833;BME280;71099;59.528;17.886;2023-12-29T09:02:48;98465.31;;;1.83;90.65
70833;BME280;71099;59.528;17.886;2023-12-29T09:05:14;98467.69;;;1.85;90.49
70833;BME280;71099;59.528;17.886;2023-12-29T09:07:39;98473.28;;;1.88;90.64
70833;BME280;71099;59.528;17.886;2023-12-29T09:10:06;98475.69;;;1.90;90.55
70833;BME280;71099;59.528;17.886;2023-12-29T09:12:37;98483.16;;;1.91;90.72
70833;BME280;71099;59.528;17.886;2023-12-29T09:15:04;98487.31;;;1.92;91.03
70833;BME280;71099;59.528;17.886;2023-12-29T09:17:29;98493.34;;;1.91;90.35
70833;BME280;71099;59.528;17.886;2023-12-29T09:19:55;98498.16;;;1.94;90.74
70833;BME280;71099;59.528;17.886;2023-12-29T09:22:20;98494.66;;;1.95;90.83
70833;BME280;71099;59.528;17.886;2023-12-29T09:24:46;98487.72;;;1.98;90.82
70833;BME280;71099;59.528;17.886;2023-12-29T09:27:11;98482.88;;;1.94;91.05
70833;BME280;71099;59.528;17.886;2023-12-29T09:29:37;98500.94;;;2.01;91.19
70833;BME280;71099;59.528;17.886;2023-12-29T09:32:03;98502.69;;;2.01;91.24
70833;BME280;71099;59.528;17.886;2023-12-29T09:34:28;98493.44;;;2.00;91.46
70833;BME280;71099;59.528;17.886;2023-12-29T09:36:53;98501.59;;;2.03;91.31
70833;BME280;71099;59.528;17.886;2023-12-29T09:39:19;98502.41;;;2.04;91.15
70833;BME280;71099;59.528;17.886;2023-12-29T09:41:46;98498.75;;;2.06;91.31
70833;BME280;71099;59.528;17.886;2023-12-29T09:44:15;98505.06;;;2.02;91.42
70833;BME280;71099;59.528;17.886;2023-12-29T09:46:42;98501.75;;;2.02;91.81
70833;BME280;71099;59.528;17.886;2023-12-29T09:49:08;98506.53;;;2.05;91.80
70833;BME280;71099;59.528;17.886;2023-12-29T09:51:35;98508.81;;;2.08;92.10
70833;BME280;71099;59.528;17.886;2023-12-29T09:54:02;98514.81;;;2.07;92.37
70833;BME280;71099;59.528;17.886;2023-12-29T09:56:28;98518.97;;;2.08;92.44
70833;BME280;71099;59.528;17.886;2023-12-29T09:58:54;98514.53;;;2.10;92.83
70833;BME280;71099;59.528;17.886;2023-12-29T10:01:21;98513.59;;;2.11;92.54
70833;BME280;71099;59.528;17.886;2023-12-29T10:03:49;98516.81;;;2.13;92.78
70833;BME280;71099;59.528;17.886;2023-12-29T10:06:20;98513.31;;;2.14;92.78
70833;BME280;71099;59.528;17.886;2023-12-29T10:08:47;98511.72;;;2.13;93.33
70833;BME280;71099;59.528;17.886;2023-12-29T10:11:17;98519.72;;;2.18;92.60
70833;BME280;71099;59.528;17.886;2023-12-29T10:13:45;98513.00;;;2.17;92.91
70833;BME280;71099;59.528;17.886;2023-12-29T10:16:25;98524.16;;;2.16;93.13
70833;BME280;71099;59.528;17.886;2023-12-29T10:19:00;98523.38;;;2.06;93.33
70833;BME280;71099;59.528;17.886;2023-12-29T10:21:37;98516.56;;;2.06;93.63
70833;BME280;71099;59.528;17.886;2023-12-29T10:24:12;98519.78;;;2.08;93.96
70833;BME280;71099;59.528;17.886;2023-12-29T10:26:41;98520.59;;;2.09;94.33
70833;BME280;71099;59.528;17.886;2023-12-29T10:29:09;98522.44;;;2.07;94.33
70833;BME280;71099;59.528;17.886;2023-12-29T10:31:35;98519.25;;;2.05;94.75
70833;BME280;71099;59.528;17.886;2023-12-29T10:34:23;98523.91;;;2.09;94.93
70833;BME280;71099;59.528;17.886;2023-12-29T10:37:00;98517.75;;;2.12;95.33
70833;BME280;71099;59.528;17.886;2023-12-29T10:39:28;98521.91;;;2.13;95.03
70833;BME280;71099;59.528;17.886;2023-12-29T10:44:35;98521.91;;;2.13;95.75
70833;BME280;71099;59.528;17.886;2023-12-29T10:47:13;98521.91;;;2.13;96.23
70833;BME280;71099;59.528;17.886;2023-12-29T10:49:40;98521.75;;;2.14;96.13
70833;BME280;71099;59.528;17.886;2023-12-29T10:52:13;98520.59;;;2.09;96.26
70833;BME280;71099;59.528;17.886;2023-12-29T10:54:42;98521.94;;;2.03;96.76
70833;BME280;71099;59.528;17.886;2023-12-29T10:57:10;98513.50;;;2.03;97.40
70833;BME280;71099;59.528;17.886;2023-12-29T10:59:37;98518.97;;;2.08;97.79
70833;BME280;71099;59.528;17.886;2023-12-29T11:02:02;98520.84;;;2.06;97.46
70833;BME280;71099;59.528;17.886;2023-12-29T11:04:31;98515.91;;;2.04;98.31
70833;BME280;71099;59.528;17.886;2023-12-29T11:06:56;98518.03;;;2.09;98.08
70833;BME280;71099;59.528;17.886;2023-12-29T11:11:57;98517.06;;;2.10;98.48
70833;BME280;71099;59.528;17.886;2023-12-29T11:14:25;98513.88;;;2.08;98.30
70833;BME280;71099;59.528;17.886;2023-12-29T11:16:51;98519.19;;;2.14;98.31
70833;BME280;71099;59.528;17.886;2023-12-29T11:19:18;98516.94;;;2.11;98.77
70833;BME280;71099;59.528;17.886;2023-12-29T11:21:44;98526.03;;;2.14;98.27
70833;BME280;71099;59.528;17.886;2023-12-29T11:24:10;98521.63;;;2.16;99.15
70833;BME280;71099;59.528;17.886;2023-12-29T11:26:36;98527.06;;;2.21;98.97
70833;BME280;71099;59.528;17.886;2023-12-29T11:29:02;98523.56;;;2.22;99.05
70833;BME280;71099;59.528;17.886;2023-12-29T11:31:30;98522.34;;;2.26;99.10
70833;BME280;71099;59.528;17.886;2023-12-29T11:34:10;98526.78;;;2.24;98.88
70833;BME280;71099;59.528;17.886;2023-12-29T11:36:41;98526.63;;;2.25;98.55
70833;BME280;71099;59.528;17.886;2023-12-29T11:42:11;98530.38;;;2.31;98.75
70833;BME280;71099;59.528;17.886;2023-12-29T11:44:38;98525.91;;;2.33;97.94
70833;BME280;71099;59.528;17.886;2023-12-29T11:47:03;98528.19;;;2.36;98.62
70833;BME280;71099;59.528;17.886;2023-12-29T11:49:58;98523.59;;;2.39;97.91
70833;BME280;71099;59.528;17.886;2023-12-29T11:52:38;98517.47;;;2.32;97.74
70833;BME280;71099;59.528;17.886;2023-12-29T11:55:09;98518.38;;;2.41;98.54
70833;BME280;71099;59.528;17.886;2023-12-29T11:57:35;98515.66;;;2.42;97.81
70833;BME280;71099;59.528;17.886;2023-12-29T12:00:02;98516.97;;;2.46;97.78
70833;BME280;71099;59.528;17.886;2023-12-29T12:02:30;98523.38;;;2.51;97.83
70833;BME280;71099;59.528;17.886;2023-12-29T12:04:56;98518.16;;;2.52;97.76
70833;BME280;71099;59.528;17.886;2023-12-29T12:09:46;98524.06;;;2.53;97.48
70833;BME280;71099;59.528;17.886;2023-12-29T12:12:14;98522.38;;;2.43;97.42
70833;BME280;71099;59.528;17.886;2023-12-29T12:14:59;98528.66;;;2.49;97.88
70833;BME280;71099;59.528;17.886;2023-12-29T12:17:28;98524.88;;;2.53;97.01
70833;BME280;71099;59.528;17.886;2023-12-29T12:20:01;98527.25;;;2.55;97.40
70833;BME280;71099;59.528;17.886;2023-12-29T12:22:30;98531.25;;;2.57;96.88
70833;BME280;71099;59.528;17.886;2023-12-29T12:24:58;98528.44;;;2.60;96.69
70833;BME280;71099;59.528;17.886;2023-12-29T12:27:25;98525.59;;;2.63;97.02
70833;BME280;71099;59.528;17.886;2023-12-29T12:29:58;98525.28;;;2.66;96.39
70833;BME280;71099;59.528;17.886;2023-12-29T12:32:28;98521.81;;;2.67;96.29
70833;BME280;71099;59.528;17.886;2023-12-29T12:34:55;98521.81;;;2.67;96.51
70833;BME280;71099;59.528;17.886;2023-12-29T12:37:27;98523.25;;;2.70;95.80
70833;BME280;71099;59.528;17.886;2023-12-29T12:39:53;98531.69;;;2.70;95.94
70833;BME280;71099;59.528;17.886;2023-12-29T12:42:20;98527.97;;;2.65;95.52
70833;BME280;71099;59.528;17.886;2023-12-29T12:44:49;98524.28;;;2.59;95.67
70833;BME280;71099;59.528;17.886;2023-12-29T12:47:25;98523.19;;;2.62;96.37
70833;BME280;71099;59.528;17.886;2023-12-29T12:49:51;98527.31;;;2.63;95.80
70833;BME280;71099;59.528;17.886;2023-12-29T12:52:17;98516.03;;;2.65;95.78
70833;BME280;71099;59.528;17.886;2023-12-29T12:54:42;98520.84;;;2.68;95.94
70833;BME280;71099;59.528;17.886;2023-12-29T12:57:08;98520.72;;;2.70;95.62
70833;BME280;71099;59.528;17.886;2023-12-29T12:59:33;98515.41;;;2.63;95.88
70833;BME280;71099;59.528;17.886;2023-12-29T13:01:59;98521.13;;;2.65;95.82
70833;BME280;71099;59.528;17.886;2023-12-29T13:04:25;98514.22;;;2.58;95.48
70833;BME280;71099;59.528;17.886;2023-12-29T13:06:50;98510.06;;;2.39;95.97
70833;BME280;71099;59.528;17.886;2023-12-29T13:09:17;98509.13;;;2.40;95.58
70833;BME280;71099;59.528;17.886;2023-12-29T13:11:44;98516.69;;;2.32;95.47
70833;BME280;71099;59.528;17.886;2023-12-29T13:14:20;98510.00;;;2.31;95.37